Time;durP1;ratioP1;P1;durP2;ratioP2;P2;SDS_P1;SDS_P2;PMS_P1;PMS_P2;Temp;Humidity;BMP_temperature;BMP_pressure;BME280_temperature;BME280_humidity;BME280_pressure;Samples;Min_cycle;Max_cycle;Signal;HPM_P1;HPM_P2
2022/01/03 00:00:24;;;;;;;8.98;1.90;;;10.50;99.90;;;9.03;100.00;100815.66;2568425;30;139125;-41
2022/01/03 00:02:55;;;;;;;8.00;1.50;;;10.50;99.90;;;9.04;99.80;100817.34;2568932;30;137069;-41
2022/01/03 00:05:25;;;;;;;7.25;1.73;;;10.50;99.90;;;9.01;100.00;100831.31;2566422;30;137820;-41
2022/01/03 00:07:53;;;;;;;9.63;1.90;;;10.50;99.90;;;9.01;100.00;100825.88;2568156;30;137039;-41
2022/01/03 00:10:21;;;;;;;;;;;10.50;99.90;;;8.99;100.00;100827.97;2567442;30;139118;-41
2022/01/03 00:12:51;;;;;;;11.73;1.73;;;10.50;99.90;;;9.00;99.98;100821.47;2569191;30;136878;-41
2022/01/03 00:15:20;;;;;;;7.93;1.67;;;10.50;99.90;;;9.02;99.41;100815.84;2566606;30;137214;-41
2022/01/03 00:17:48;;;;;;;10.90;1.83;;;10.50;99.90;;;9.02;99.06;100829.47;2568798;30;137569;-41
2022/01/03 00:20:16;;;;;;;9.32;1.58;;;10.50;99.90;;;9.04;98.49;100836.41;2566103;30;138429;-41
2022/01/03 00:22:56;;;;;;;;;;;10.50;99.90;;;9.01;98.99;100831.31;2567325;30;136845;-41
2022/01/03 00:25:26;;;;;;;14.53;2.20;;;10.50;99.90;;;9.05;98.21;100823.59;2566687;30;137283;-41
2022/01/03 00:28:16;;;;;;;9.98;1.50;;;10.50;99.90;;;9.04;97.71;100832.81;2566201;30;138669;-41
2022/01/03 00:30:44;;;;;;;10.88;1.77;;;10.50;99.90;;;8.96;97.48;100842.00;2567717;30;140799;-41
2022/01/03 00:33:13;;;;;;;10.93;2.25;;;10.50;99.90;;;8.96;96.90;100828.38;2568789;30;137776;-41
2022/01/03 00:35:42;;;;;;;11.70;1.70;;;10.50;99.90;;;8.97;96.77;100840.13;2566810;30;139230;-41
2022/01/03 00:38:12;;;;;;;12.85;1.70;;;10.50;99.90;;;8.95;96.25;100847.66;2568485;30;137553;-41
2022/01/03 00:40:41;;;;;;;9.88;1.83;;;10.40;99.90;;;8.95;96.34;100843.03;2567732;30;139169;-41
2022/01/03 00:43:08;;;;;;;11.52;1.92;;;10.40;99.90;;;8.93;96.21;100850.56;2567460;30;137917;-42
2022/01/03 00:45:35;;;;;;;15.18;1.95;;;10.40;99.90;;;8.94;96.60;100848.69;2567579;30;137442;-42
2022/01/03 00:48:09;;;;;;;17.45;2.03;;;10.40;99.90;;;8.99;96.46;100865.25;2567934;30;137325;-41
2022/01/03 00:50:37;;;;;;;11.68;2.13;;;10.40;99.90;;;8.94;96.74;100856.84;2568173;30;138231;-41
2022/01/03 00:53:06;;;;;;;12.38;1.73;;;10.50;99.90;;;8.91;96.53;100864.38;2567538;30;137485;-42
2022/01/03 00:55:34;;;;;;;;;;;10.40;99.90;;;8.99;96.41;100859.81;2566949;30;137462;-41
2022/01/03 00:58:13;;;;;;;8.40;1.67;;;10.40;99.90;;;8.97;96.95;100851.81;2568092;30;137225;-41
2022/01/03 01:00:41;;;;;;;;;;;10.50;99.90;;;8.97;96.65;100870.06;2567966;30;138115;-41
2022/01/03 01:03:18;;;;;;;7.73;1.80;;;10.50;99.90;;;8.91;96.81;100863.53;2566833;30;137280;-41
2022/01/03 01:05:53;;;;;;;12.80;2.20;;;10.40;99.90;;;8.83;97.50;100877.28;2567006;30;138119;-41
2022/01/03 01:08:26;;;;;;;10.73;1.60;;;10.40;99.90;;;8.80;96.54;100864.09;2567962;30;137321;-41
2022/01/03 01:10:59;;;;;;;12.73;1.92;;;10.30;99.90;;;8.74;96.36;100866.56;2566376;30;138864;-41
2022/01/03 01:13:26;;;;;;;10.65;2.13;;;10.30;99.90;;;8.69;96.99;100866.31;2566650;30;138806;-41
2022/01/03 01:15:54;;;;;;;12.75;1.63;;;10.20;99.90;;;8.67;97.30;100865.69;2567397;30;139156;-41
2022/01/03 01:18:24;;;;;;;10.48;1.50;;;10.20;99.90;;;8.67;97.62;100873.84;2568237;30;138907;-41
2022/01/03 01:20:52;;;;;;;13.50;2.55;;;10.20;99.90;;;8.65;97.41;100877.81;2566541;30;139499;-42
2022/01/03 01:23:20;;;;;;;;;;;10.20;99.90;;;8.68;97.42;100880.13;2569152;30;137393;-41
2022/01/03 01:28:16;;;;;;;;;;;10.20;99.90;;;8.82;96.24;100887.31;2568821;30;139563;-41
2022/01/03 01:30:49;;;;;;;19.47;1.77;;;10.30;99.90;;;8.82;96.40;100881.88;2567472;30;140508;-41
2022/01/03 01:33:17;;;;;;;12.75;2.25;;;10.30;99.90;;;8.86;96.75;100893.22;2567400;30;137171;-41
2022/01/03 01:36:08;;;;;;;16.73;2.17;;;10.40;99.90;;;8.89;96.08;100888.22;2567936;30;139097;-41
2022/01/03 01:38:43;;;;;;;11.30;1.77;;;10.40;99.90;;;8.87;95.96;100890.28;2566499;30;137998;-41
2022/01/03 01:41:11;;;;;;;15.35;1.77;;;10.40;99.90;;;8.89;95.50;100893.66;2566800;30;138468;-41
2022/01/03 01:43:49;;;;;;;11.65;2.00;;;10.40;99.90;;;8.92;96.04;100903.28;2568452;30;137800;-41
2022/01/03 01:46:24;;;;;;;15.75;1.80;;;10.40;99.90;;;8.85;95.72;100886.91;2565739;30;139509;-41
2022/01/03 01:49:05;;;;;;;10.30;1.60;;;10.40;99.90;;;8.88;94.71;100896.56;2567892;30;139509;-41
2022/01/03 01:51:37;;;;;;;12.35;1.88;;;10.40;99.90;;;8.85;95.00;100886.91;2567151;30;140688;-41
2022/01/03 01:54:12;;;;;;;13.32;1.92;;;10.40;99.90;;;8.89;95.01;100882.78;2564574;30;138571;-41
2022/01/03 01:57:08;;;;;;;9.30;1.77;;;10.40;99.90;;;8.82;94.63;100897.38;2568087;30;138425;-41
2022/01/03 02:00:10;;;;;;;12.25;2.00;;;10.30;99.90;;;8.80;94.78;100896.75;2566315;30;139117;-41
2022/01/03 02:03:18;;;;;;;11.43;1.73;;;10.30;99.90;;;8.83;94.39;100899.88;2566157;30;140057;-41
2022/01/03 02:06:10;;;;;;;17.20;2.22;;;10.30;99.90;;;8.76;95.37;100899.88;2565273;30;138599;-41
2022/01/03 02:09:09;;;;;;;12.60;1.50;;;10.30;99.90;;;8.65;95.69;100897.69;2565589;30;138326;-41
2022/01/03 02:11:55;;;;;;;14.10;1.98;;;10.30;99.90;;;8.62;96.11;100906.22;2564858;30;137373;-41
2022/01/03 02:14:35;;;;;;;14.05;2.08;;;10.20;99.90;;;8.58;96.13;100908.50;2568162;30;137326;-41
2022/01/03 02:17:06;;;;;;;13.17;1.63;;;10.10;99.90;;;8.62;95.34;100908.94;2567655;30;137619;-41
2022/01/03 02:19:37;;;;;;;12.60;1.60;;;10.10;99.90;;;8.61;95.90;100904.56;2568281;30;139224;-41
2022/01/03 02:22:10;;;;;;;13.30;1.85;;;10.10;99.90;;;8.59;95.47;100899.28;2567859;30;138334;-41
2022/01/03 02:24:47;;;;;;;13.20;2.55;;;10.10;99.90;;;8.53;95.61;100910.97;2566575;30;140568;-41
2022/01/03 02:27:18;;;;;;;12.63;1.83;;;10.10;99.90;;;8.46;96.15;100907.34;2568207;30;137573;-41
2022/01/03 02:29:45;;;;;;;12.48;1.67;;;10.00;99.90;;;8.48;96.14;100902.53;2565711;30;140018;-41
2022/01/03 02:32:17;;;;;;;10.55;1.60;;;10.00;99.90;;;8.43;95.30;100907.72;2567281;30;139083;-41
2022/01/03 02:34:45;;;;;;;10.90;1.92;;;10.00;99.90;;;8.37;95.78;100909.34;2568344;30;138966;-41
2022/01/03 02:37:13;;;;;;;10.80;1.65;;;9.90;99.90;;;8.41;95.52;100894.31;2565358;30;137354;-41
2022/01/03 02:39:43;;;;;;;8.77;1.50;;;9.90;99.90;;;8.49;94.19;100894.22;2568102;30;139479;-41
2022/01/03 02:42:10;;;;;;;9.75;1.90;;;10.00;99.90;;;8.45;93.63;100879.28;2565923;30;139258;-41
2022/01/03 02:44:38;;;;;;;17.23;2.15;;;10.00;99.90;;;8.51;93.22;100896.72;2567556;30;138406;-42
2022/01/03 02:47:05;;;;;;;13.52;1.75;;;10.00;99.90;;;8.53;92.52;100896.56;2568260;30;137482;-41
2022/01/03 02:49:33;;;;;;;15.98;2.42;;;10.00;99.90;;;8.55;92.19;100898.00;2569017;30;138569;-41
2022/01/03 02:52:00;;;;;;;12.05;1.50;;;10.10;99.90;;;8.58;92.31;100894.91;2568772;30;138465;-41
2022/01/03 02:54:28;;;;;;;15.10;1.92;;;10.10;99.90;;;8.56;92.87;100894.25;2567732;30;140537;-41
2022/01/03 02:56:56;;;;;;;;;;;10.10;99.90;;;8.59;92.70;100898.47;2569702;30;138395;-42
2022/01/03 02:59:24;;;;;;;12.53;2.10;;;10.10;99.90;;;8.63;93.05;100900.59;2566267;30;139846;-41
2022/01/03 03:01:52;;;;;;;11.35;1.92;;;10.10;99.90;;;8.58;93.46;100896.78;2568481;30;136760;-42
2022/01/03 03:04:21;;;;;;;8.70;1.60;;;10.10;99.90;;;8.54;93.35;100900.94;2566545;30;139205;-41
2022/01/03 03:06:50;;;;;;;10.77;1.60;;;10.00;99.90;;;8.56;93.24;100904.31;2568166;30;140214;-41
2022/01/03 03:09:20;;;;;;;12.80;1.73;;;10.10;99.90;;;8.51;93.42;100904.06;2567737;30;139337;-41
2022/01/03 03:11:49;;;;;;;10.23;1.73;;;10.10;99.90;;;8.49;93.17;100902.38;2565585;30;138723;-41
2022/01/03 03:14:17;;;;;;;9.90;1.80;;;10.10;99.90;;;8.47;94.24;100904.41;2567798;30;139586;-42
2022/01/03 03:16:46;;;;;;;11.57;1.50;;;10.00;99.90;;;8.39;94.28;100907.28;2567860;30;138552;-41
2022/01/03 03:19:13;;;;;;;7.72;1.80;;;9.90;99.90;;;8.34;94.40;100901.59;2567183;30;138698;-41
2022/01/03 03:21:41;;;;;;;5.95;1.38;;;9.90;99.90;;;8.32;94.69;100914.53;2567779;30;138242;-42
2022/01/03 03:24:09;;;;;;;;;;;9.80;99.90;;;8.33;94.34;100905.34;2566784;30;139590;-41
2022/01/03 03:26:37;;;;;;;12.57;1.55;;;9.80;99.90;;;8.32;95.33;100904.47;2567445;30;139409;-41
2022/01/03 03:32:28;;;;;;;9.30;1.63;;;9.80;99.90;;;8.40;94.48;100908.94;2566906;30;136772;-37
2022/01/03 03:34:56;;;;;;;12.30;1.63;;;9.90;99.90;;;8.37;94.94;100912.06;2566699;30;138090;-36
2022/01/03 03:37:24;;;;;;;9.57;1.77;;;9.90;99.90;;;8.30;94.77;100905.72;2569011;30;139580;-36
2022/01/03 03:39:51;;;;;;;12.70;2.00;;;9.90;99.90;;;8.31;95.43;100923.72;2568333;30;137622;-36
2022/01/03 03:42:19;;;;;;;9.63;1.40;;;9.90;99.90;;;8.36;95.01;100915.81;2568357;30;139606;-36
2022/01/03 03:44:47;;;;;;;14.43;2.08;;;9.80;99.90;;;8.39;95.39;100909.16;2567207;30;137977;-36
2022/01/03 03:47:15;;;;;;;13.13;1.83;;;9.90;99.90;;;8.35;94.98;100905.97;2567705;30;138381;-36
2022/01/03 03:49:42;;;;;;;12.68;2.38;;;9.90;99.90;;;8.36;95.99;100915.81;2567679;30;138346;-36
2022/01/03 03:52:11;;;;;;;13.52;1.75;;;9.90;99.90;;;8.33;95.82;100917.03;2569272;30;140479;-36
2022/01/03 03:54:39;;;;;;;13.63;1.85;;;9.90;99.90;;;8.32;96.30;100914.53;2567977;30;137502;-36
2022/01/03 03:57:08;;;;;;;10.82;1.95;;;9.90;99.90;;;8.27;96.04;100911.56;2567558;30;139869;-37
2022/01/03 03:59:36;;;;;;;8.65;1.90;;;9.80;99.90;;;8.32;96.01;100915.34;2566075;30;138283;-36
2022/01/03 04:02:05;;;;;;;10.35;1.95;;;9.80;99.90;;;8.31;95.60;100918.28;2567840;30;140606;-36
2022/01/03 04:04:34;;;;;;;12.75;2.03;;;9.80;99.90;;;8.25;96.08;100908.19;2568468;30;138939;-36
2022/01/03 04:07:03;;;;;;;9.40;1.80;;;9.80;99.90;;;8.21;96.42;100913.19;2566527;30;140743;-37
2022/01/03 04:09:30;;;;;;;12.38;1.88;;;9.80;99.90;;;8.20;96.35;100911.50;2568581;30;137466;-36
2022/01/03 04:11:59;;;;;;;10.82;1.38;;;9.70;99.90;;;8.16;96.35;100913.75;2566193;30;138275;-37
2022/01/03 04:14:26;;;;;;;13.85;1.80;;;9.70;99.90;;;8.13;96.72;100899.72;2567784;30;137395;-36
2022/01/03 04:16:54;;;;;;;13.25;3.05;;;9.70;99.90;;;8.10;96.89;100919.13;2565010;30;138638;-36
2022/01/03 04:19:22;;;;;;;8.50;1.40;;;9.70;99.90;;;8.04;97.34;100909.88;2568281;30;139648;-36
2022/01/03 04:21:50;;;;;;;12.88;1.80;;;9.60;99.90;;;8.01;97.87;100899.41;2566926;30;138629;-36
2022/01/03 04:24:17;;;;;;;;;;;9.60;99.90;;;8.05;98.05;100898.78;2567493;30;138501;-36
2022/01/03 04:26:45;;;;;;;9.88;1.42;;;9.60;99.90;;;8.01;98.08;100908.38;2569467;30;139061;-36
2022/01/03 04:29:14;;;;;;;8.18;1.75;;;9.60;99.90;;;8.03;98.03;100905.47;2567375;30;137271;-36
2022/01/03 04:31:43;;;;;;;13.18;1.95;;;9.60;99.90;;;8.01;98.10;100896.69;2566845;30;139573;-36
2022/01/03 04:34:11;;;;;;;17.15;2.00;;;9.60;99.90;;;8.03;97.89;100895.44;2565415;30;137736;-36
2022/01/03 04:36:39;;;;;;;8.90;2.35;;;9.60;99.90;;;8.04;97.78;100891.69;2567982;30;139045;-36
2022/01/03 04:39:07;;;;;;;19.00;2.50;;;9.60;99.90;;;8.02;97.85;100887.50;2567060;30;138239;-36
2022/01/03 04:41:35;;;;;;;;;;;9.60;99.90;;;8.05;97.55;100903.41;2568507;30;138510;-36
2022/01/03 04:44:05;;;;;;;11.20;1.35;;;9.60;99.90;;;8.02;96.96;100887.50;2568763;30;139231;-36
2022/01/03 04:46:36;;;;;;;12.43;2.00;;;9.60;99.90;;;8.05;96.77;100892.53;2567656;30;139303;-36
2022/01/03 04:49:07;;;;;;;10.77;1.98;;;9.60;99.90;;;8.08;96.49;100881.28;2567812;30;137552;-37
2022/01/03 04:51:35;;;;;;;11.38;2.10;;;9.60;99.90;;;8.06;96.96;100888.78;2567322;30;140082;-36
2022/01/03 04:54:03;;;;;;;12.77;2.00;;;9.60;99.90;;;7.92;97.40;100896.78;2567599;30;138412;-36
2022/01/03 04:56:33;;;;;;;14.10;1.58;;;9.50;99.90;;;7.90;98.04;100888.00;2565556;30;138299;-36
2022/01/03 04:59:03;;;;;;;8.25;1.25;;;9.50;99.90;;;7.96;97.87;100885.56;2565872;30;140012;-36
2022/01/03 05:01:31;;;;;;;10.63;1.85;;;9.50;99.90;;;7.92;97.93;100899.50;2566074;30;140184;-37
2022/01/03 05:04:00;;;;;;;11.57;1.98;;;9.50;99.90;;;8.01;96.92;100893.97;2567589;30;138945;-36
2022/01/03 05:06:27;;;;;;;11.82;1.75;;;9.50;99.90;;;7.99;96.79;100901.47;2566324;30;137244;-36
2022/01/03 05:08:55;;;;;;;10.77;1.70;;;9.50;99.90;;;8.00;96.84;100895.81;2567299;30;138145;-36
2022/01/03 05:11:23;;;;;;;11.68;1.85;;;9.50;99.90;;;8.07;96.91;100901.34;2567594;30;139693;-37
2022/01/03 05:13:51;;;;;;;10.23;1.70;;;9.60;99.90;;;8.10;96.42;100895.50;2567898;30;137445;-36
2022/01/03 05:16:19;;;;;;;10.30;1.40;;;9.60;99.90;;;8.16;96.56;100897.44;2566453;30;139952;-36
2022/01/03 05:18:47;;;;;;;7.30;1.85;;;9.70;99.90;;;8.31;96.02;100893.81;2566616;30;139027;-36
2022/01/03 05:21:15;;;;;;;10.93;1.83;;;9.80;99.90;;;8.29;95.35;100899.44;2567083;30;137863;-37
2022/01/03 05:23:45;;;;;;;10.13;1.92;;;9.80;99.90;;;8.33;95.08;100892.56;2567062;30;137284;-36
2022/01/03 05:26:14;;;;;;;7.95;1.63;;;9.80;99.90;;;8.35;95.42;100895.09;2568194;30;137434;-36
2022/01/03 05:28:42;;;;;;;8.25;1.40;;;9.80;99.90;;;8.29;95.21;100887.75;2566316;30;139165;-36
2022/01/03 05:31:12;;;;;;;12.20;2.15;;;9.80;99.90;;;8.28;95.59;100886.06;2567236;30;139634;-36
2022/01/03 05:33:40;;;;;;;11.43;1.98;;;9.80;99.90;;;8.26;95.47;100888.13;2567286;30;139092;-36
2022/01/03 05:36:08;;;;;;;9.63;1.42;;;9.80;99.90;;;8.30;95.94;100878.56;2566617;30;139822;-36
2022/01/03 05:38:36;;;;;;;11.68;1.85;;;9.80;99.90;;;8.29;95.78;100874.16;2566337;30;138220;-36
2022/01/03 05:41:03;;;;;;;10.10;1.40;;;9.80;99.90;;;8.31;94.93;100864.75;2567735;30;138198;-36
2022/01/03 05:43:31;;;;;;;8.75;1.58;;;9.80;99.90;;;8.41;95.04;100869.84;2568767;30;138086;-36
2022/01/03 05:45:59;;;;;;;7.10;1.60;;;9.90;99.90;;;8.42;95.15;100870.69;2566910;30;139610;-36
2022/01/03 05:48:28;;;;;;;11.00;1.80;;;9.90;99.90;;;8.43;95.60;100864.22;2568594;30;137424;-36
2022/01/03 05:50:55;;;;;;;5.90;1.42;;;9.90;99.90;;;8.39;95.75;100866.47;2567217;30;140320;-36
2022/01/03 05:53:23;;;;;;;;;;;9.90;99.90;;;8.38;95.72;100869.41;2568630;30;139825;-36
2022/01/03 05:55:51;;;;;;;9.75;1.42;;;9.90;99.90;;;8.35;95.78;100874.22;2567560;30;138414;-36
2022/01/03 05:58:19;;;;;;;10.30;1.65;;;9.90;99.90;;;8.35;95.94;100863.34;2567047;30;139745;-36
2022/01/03 06:00:47;;;;;;;11.65;1.58;;;9.90;99.90;;;8.36;96.05;100861.44;2566065;30;140157;-36
2022/01/03 06:03:19;;;;;;;16.48;1.80;;;9.90;99.90;;;8.34;95.62;100858.91;2568674;30;136852;-36
2022/01/03 06:08:26;;;;;;;15.10;2.35;;;9.90;99.90;;;8.41;95.68;100836.41;2568245;30;139567;-36
2022/01/03 06:10:55;;;;;;;9.68;1.90;;;9.90;99.90;;;8.41;95.53;100847.28;2567984;30;140463;-37
2022/01/03 06:13:27;;;;;;;10.30;1.98;;;9.90;99.90;;;8.42;95.36;100833.47;2566168;30;139801;-36
2022/01/03 06:15:55;;;;;;;14.32;2.08;;;9.90;99.90;;;8.44;95.38;100833.28;2567992;30;140382;-36
2022/01/03 06:18:24;;;;;;;14.00;1.88;;;10.00;99.90;;;8.44;95.78;100847.69;2568453;30;139035;-37
2022/01/03 06:20:57;;;;;;;18.58;2.88;;;10.00;99.90;;;8.40;95.75;100838.25;2567520;30;140109;-36
2022/01/03 06:23:30;;;;;;;12.30;1.83;;;10.00;99.90;;;8.48;95.70;100837.28;2568256;30;138760;-36
2022/01/03 06:25:58;;;;;;;12.07;2.00;;;10.00;99.90;;;8.52;95.32;100835.03;2568551;30;141104;-36
2022/01/03 06:28:52;;;;;;;9.52;1.85;;;10.00;99.90;;;8.57;95.25;100838.81;2568172;30;136581;-36
2022/01/03 06:31:21;;;;;;;10.45;2.17;;;10.10;99.90;;;8.58;95.18;100836.97;2567681;30;139110;-36
2022/01/03 06:33:50;;;;;;;19.52;2.22;;;10.10;99.90;;;8.62;94.64;100839.09;2566858;30;138438;-36
2022/01/03 06:36:18;;;;;;;;;;;10.10;99.90;;;8.67;94.50;100840.38;2566613;30;139708;-36
2022/01/03 06:38:46;;;;;;;9.23;1.47;;;10.10;99.90;;;8.64;95.50;100836.16;2568127;30;138183;-36
2022/01/03 06:41:15;;;;;;;10.13;1.83;;;10.10;99.90;;;8.66;95.04;100841.41;2568520;30;140475;-36
2022/01/03 06:43:43;;;;;;;;;;;10.10;99.90;;;8.67;95.41;100827.59;2565455;30;138814;-36
2022/01/03 06:46:11;;;;;;;12.02;2.28;;;10.10;99.90;;;8.68;94.98;100834.72;2568194;30;139252;-36
2022/01/03 06:48:39;;;;;;;16.35;1.98;;;10.20;99.90;;;8.70;94.57;100835.34;2567908;30;138615;-36
2022/01/03 06:51:07;;;;;;;13.38;2.42;;;10.20;99.90;;;8.73;94.44;100837.66;2567838;30;140595;-36
2022/01/03 06:53:35;;;;;;;10.55;1.58;;;10.20;99.90;;;8.74;94.63;100835.81;2566168;30;137640;-36
2022/01/03 06:56:03;;;;;;;8.80;1.85;;;10.20;99.90;;;8.74;94.77;100839.34;2567887;30;140696;-36
2022/01/03 06:58:32;;;;;;;19.20;2.83;;;10.30;99.90;;;8.73;94.11;100843.09;2567250;30;137724;-37
2022/01/03 07:01:01;;;;;;;11.15;1.52;;;10.20;99.90;;;8.67;93.91;100846.63;2567099;30;139270;-36
2022/01/03 07:03:28;;;;;;;;;;;10.20;99.90;;;8.68;94.22;100842.88;2568198;30;139020;-36
2022/01/03 07:05:56;;;;;;;10.23;1.73;;;10.20;99.90;;;8.63;93.95;100842.63;2568320;30;138966;-37
2022/01/03 07:08:23;;;;;;;11.27;2.20;;;10.20;99.90;;;8.63;93.45;100837.19;2567612;30;137571;-36
2022/01/03 07:10:51;;;;;;;11.07;1.92;;;10.20;99.90;;;8.57;93.64;100840.72;2567572;30;138164;-36
2022/01/03 07:13:19;;;;;;;;;;;10.10;99.90;;;8.57;94.11;100843.44;2567966;30;136884;-36
2022/01/03 07:21:18;;;;;;;9.77;1.70;;;9.90;99.90;;;8.33;95.28;100821.88;2567800;30;139075;-36
2022/01/03 07:23:46;;;;;;;12.15;1.65;;;9.90;99.90;;;8.29;95.05;100819.78;2568197;30;137421;-36
2022/01/03 07:26:13;;;;;;;11.50;1.80;;;9.80;99.90;;;8.37;94.83;100825.06;2568258;30;138320;-36
2022/01/03 07:28:42;;;;;;;12.20;1.67;;;9.80;99.90;;;8.35;95.09;100829.88;2568426;30;137313;-36
2022/01/03 07:31:09;;;;;;;15.55;2.15;;;9.90;99.90;;;8.26;95.73;100829.16;2566700;30;137428;-36
2022/01/03 07:33:37;;;;;;;11.48;1.83;;;9.80;99.90;;;8.29;95.84;100834.19;2568467;30;136692;-36
2022/01/03 07:36:05;;;;;;;10.35;1.67;;;9.80;99.90;;;8.27;95.61;100835.47;2567709;30;138405;-36
2022/01/03 07:38:32;;;;;;;12.60;1.83;;;9.80;99.90;;;8.23;95.89;100837.72;2565526;30;137413;-36
2022/01/03 07:41:00;;;;;;;10.32;1.95;;;9.80;99.90;;;8.29;96.05;100830.66;2568691;30;137343;-36
2022/01/03 07:43:28;;;;;;;5.97;1.73;;;9.80;99.90;;;8.30;96.38;100835.06;2566640;30;137419;-36
2022/01/03 07:45:55;;;;;;;9.65;1.73;;;9.80;99.90;;;8.28;96.76;100843.41;2568268;30;138246;-37
2022/01/03 07:48:23;;;;;;;8.57;1.77;;;9.80;99.90;;;8.37;96.06;100840.56;2565725;30;137153;-36
2022/01/03 07:50:51;;;;;;;12.40;1.95;;;9.80;99.90;;;8.34;96.55;100841.78;2567719;30;138634;-36
2022/01/03 07:53:18;;;;;;;13.43;2.08;;;9.90;99.90;;;8.29;96.46;100847.78;2567374;30;137352;-36
2022/01/03 07:55:46;;;;;;;10.65;2.42;;;9.80;99.90;;;8.32;97.05;100839.25;2567265;30;138988;-37
2022/01/03 07:58:16;;;;;;;11.10;1.70;;;9.80;99.90;;;8.38;96.40;100837.63;2568089;30;137370;-37
2022/01/03 08:00:45;;;;;;;13.98;2.10;;;9.80;99.90;;;8.41;96.61;100836.41;2565813;30;139058;-37
2022/01/03 08:03:13;;;;;;;9.50;1.52;;;9.90;99.90;;;8.41;96.59;100842.66;2565559;30;137197;-37
2022/01/03 08:05:41;;;;;;;11.70;1.98;;;9.90;99.90;;;8.33;96.49;100838.19;2568643;30;138139;-37
2022/01/03 08:08:12;;;;;;;14.20;1.75;;;9.90;99.90;;;8.34;96.70;100839.88;2568508;30;138601;-35
2022/01/03 08:10:41;;;;;;;;;;;9.80;99.90;;;8.33;96.62;100840.09;2569454;30;137268;-36
2022/01/03 08:13:09;;;;;;;12.52;2.35;;;9.80;99.90;;;8.36;96.38;100831.53;2568694;30;137866;-37
2022/01/03 08:15:38;;;;;;;11.43;1.90;;;9.80;99.90;;;8.30;97.03;100843.22;2568009;30;138427;-36
2022/01/03 08:18:07;;;;;;;11.30;1.90;;;9.80;99.90;;;8.26;97.20;100841.94;2568785;30;137468;-36
2022/01/03 08:20:35;;;;;;;10.60;1.90;;;9.80;99.90;;;8.32;97.32;100849.28;2566775;30;138028;-37
2022/01/03 08:23:03;;;;;;;14.48;1.80;;;9.80;99.90;;;8.42;96.71;100852.50;2566419;30;137586;-36
2022/01/03 08:25:33;;;;;;;17.17;2.05;;;9.90;99.90;;;8.44;96.52;100838.72;2567765;30;138486;-36
2022/01/03 08:28:01;;;;;;;11.98;1.88;;;9.90;99.90;;;8.51;97.80;100852.41;2567711;30;137507;-36
2022/01/03 08:30:28;;;;;;;9.63;1.88;;;9.90;99.90;;;8.52;99.05;100849.47;2567572;30;139366;-36
2022/01/03 08:32:56;;;;;;;11.75;2.50;;;10.00;99.90;;;8.52;99.12;100837.75;2567219;30;137587;-36
2022/01/03 08:35:24;;;;;;;12.40;2.05;;;10.00;99.90;;;8.54;99.00;100846.56;2565927;30;137170;-36
2022/01/03 08:37:52;;;;;;;12.95;2.35;;;10.00;99.90;;;8.57;99.10;100846.16;2568296;30;137329;-37
2022/01/03 08:40:20;;;;;;;11.88;1.85;;;10.00;99.90;;;8.56;99.28;100845.31;2567374;30;137727;-36
2022/01/03 08:42:48;;;;;;;10.30;1.85;;;10.00;99.90;;;8.63;98.71;100842.63;2565796;30;138344;-37
2022/01/03 08:45:16;;;;;;;9.25;2.50;;;10.10;99.90;;;8.69;98.62;100846.44;2565019;38;138544;-36
2022/01/03 08:47:44;;;;;;;18.67;3.38;;;10.20;99.90;;;8.71;98.73;100847.09;2568102;30;137285;-36
2022/01/03 08:50:12;;;;;;;;;;;10.20;99.90;;;8.69;98.50;100833.66;2568050;30;137420;-36
2022/01/03 08:52:39;;;;;;;11.32;1.83;;;10.20;99.90;;;8.69;98.67;100821.97;2567922;30;137895;-36
2022/01/03 08:55:08;;;;;;;10.98;2.38;;;10.20;99.90;;;8.68;98.32;100823.84;2565491;30;138057;-36
2022/01/03 08:57:35;;;;;;;11.35;1.98;;;10.20;99.90;;;8.80;97.39;100829.56;2566618;30;136770;-36
2022/01/03 09:00:05;;;;;;;9.88;2.03;;;10.20;99.90;;;8.80;97.84;100835.00;2567745;30;137411;-36
2022/01/03 09:02:33;;;;;;;11.18;2.53;;;10.30;99.90;;;8.85;97.69;100842.56;2567618;30;137750;-36
2022/01/03 09:05:00;;;;;;;13.18;1.75;;;10.30;99.90;;;8.83;98.14;100833.75;2567182;30;139227;-37
2022/01/03 09:07:28;;;;;;;16.88;2.00;;;10.30;99.90;;;8.84;97.61;100838.16;2564701;30;137348;-36
2022/01/03 09:09:55;;;;;;;18.27;2.75;;;10.30;99.90;;;8.89;97.51;100824.78;2567873;30;138329;-36
2022/01/03 09:12:23;;;;;;;11.35;2.20;;;10.40;99.90;;;8.92;96.93;100832.53;2566598;30;137674;-36
2022/01/03 09:14:50;;;;;;;10.57;2.15;;;10.40;99.90;;;8.94;96.94;100825.03;2566945;30;138163;-36
2022/01/03 09:17:18;;;;;;;10.65;2.05;;;10.40;99.90;;;8.90;97.12;100827.31;2567767;30;138294;-36
2022/01/03 09:19:45;;;;;;;10.40;1.80;;;10.40;99.90;;;8.90;96.53;100823.75;2566592;30;138408;-36
2022/01/03 09:22:22;;;;;;;10.40;2.22;;;10.40;99.90;;;8.97;95.68;100819.16;2568740;30;136998;-36
2022/01/03 09:30:16;;;;;;;10.75;1.90;;;10.50;99.90;;;9.11;93.53;100824.69;2566328;30;137228;-36
2022/01/03 09:32:43;;;;;;;12.73;2.80;;;10.60;99.90;;;9.17;93.78;100829.31;2569669;30;137415;-41
2022/01/03 09:35:11;;;;;;;11.45;2.05;;;10.60;99.90;;;9.22;92.85;100826.81;2565993;30;138684;-41
2022/01/03 09:37:40;;;;;;;8.18;1.80;;;10.70;99.90;;;9.24;92.52;100837.53;2567612;30;137359;-41
2022/01/03 09:40:09;;;;;;;10.63;1.63;;;10.70;99.90;;;9.28;92.86;100844.22;2567969;30;138400;-41
2022/01/03 09:42:37;;;;;;;12.45;1.90;;;10.70;99.90;;;9.28;91.78;100847.81;2568381;30;137208;-41
2022/01/03 09:45:08;;;;;;;10.73;1.98;;;10.70;99.90;;;9.33;91.51;100853.47;2567094;30;137477;-41
2022/01/03 09:47:42;;;;;;;10.48;2.10;;;10.80;99.90;;;9.39;91.68;100843.63;2567748;30;136757;-41
2022/01/03 09:50:14;;;;;;;12.30;2.03;;;10.80;99.90;;;9.42;91.00;100839.66;2567100;30;137946;-41
2022/01/03 09:52:45;;;;;;;11.38;1.90;;;10.90;99.90;;;9.49;90.55;100829.63;2567868;30;136992;-41
2022/01/03 09:55:16;;;;;;;14.05;1.98;;;10.90;99.90;;;9.54;90.37;100840.75;2566905;30;138438;-41
2022/01/03 09:57:45;;;;;;;13.77;1.92;;;10.90;99.90;;;9.59;89.61;100830.09;2568276;30;136961;-41
2022/01/03 10:00:22;;;;;;;11.90;2.20;;;11.00;99.90;;;9.62;88.90;100829.69;2567291;30;138432;-41
2022/01/03 10:02:52;;;;;;;10.60;1.70;;;11.00;99.90;;;9.64;89.46;100816.69;2567448;30;137420;-41
2022/01/03 10:05:21;;;;;;;12.68;2.10;;;11.10;99.90;;;9.75;88.23;100838.91;2568819;30;139019;-41
2022/01/03 10:07:50;;;;;;;9.57;1.50;;;11.10;99.90;;;9.75;87.62;100830.75;2566906;30;136592;-41
2022/01/03 10:10:18;;;;;;;11.95;1.55;;;11.20;99.90;;;9.72;88.36;100814.81;2566774;30;139191;-41
2022/01/03 10:12:45;;;;;;;12.82;2.10;;;11.20;99.90;;;9.77;87.76;100815.03;2568720;30;138441;-41
2022/01/03 10:15:13;;;;;;;10.73;1.95;;;11.20;99.90;;;9.82;87.90;100822.59;2564577;30;137359;-41
2022/01/03 10:17:42;;;;;;;9.43;1.67;;;11.20;99.90;;;9.83;87.99;100825.13;2568499;30;137672;-41
2022/01/03 10:20:13;;;;;;;10.43;1.80;;;11.20;99.90;;;9.85;89.12;100822.16;2568492;30;137377;-42
2022/01/03 10:22:42;;;;;;;10.57;1.75;;;11.30;99.90;;;9.87;87.29;100815.47;2567734;30;136891;-41
2022/01/03 10:25:26;;;;;;;10.10;1.52;;;11.30;99.90;;;9.87;87.32;100806.44;2566440;30;138832;-41
2022/01/03 10:28:03;;;;;;;12.23;2.17;;;11.30;99.90;;;9.92;88.36;100828.44;2567499;30;136874;-42
2022/01/03 10:30:43;;;;;;;9.75;1.70;;;11.30;99.90;;;9.95;87.40;100822.59;2565670;30;139086;-41
2022/01/03 10:33:16;;;;;;;12.15;1.98;;;11.40;99.90;;;9.96;87.11;100815.25;2566451;30;137379;-41
2022/01/03 10:35:48;;;;;;;9.88;1.73;;;11.40;99.90;;;9.96;86.84;100804.34;2566420;30;137325;-41
2022/01/03 10:38:45;;;;;;;9.07;1.85;;;11.40;99.90;;;9.92;86.47;100804.78;2568854;30;136782;-42
2022/01/03 10:41:17;;;;;;;10.10;2.35;;;11.40;99.90;;;9.94;87.37;100796.38;2567339;30;136862;-41
2022/01/03 10:43:55;;;;;;;13.70;1.88;;;11.40;99.90;;;9.93;87.16;100795.56;2568178;30;137701;-39